Time;durP1;ratioP1;P1;durP2;ratioP2;P2;SDS_P1;SDS_P2;PMS_P1;PMS_P2;Temp;Humidity;BMP_temperature;BMP_pressure;BME280_temperature;BME280_humidity;BME280_pressure;Samples;Min_cycle;Max_cycle;Signal;HPM_P1;HPM_P2
2021/11/28 00:00:38;;;;;;;89.67;42.17;;;;;;;1.86;84.07;98950.81;1703820;84;20923;-72
2021/11/28 00:03:02;;;;;;;91.05;43.00;;;;;;;1.85;84.07;98931.72;1705622;83;20945;-72
2021/11/28 00:05:34;;;;;;;88.47;41.37;;;;;;;1.86;84.08;98930.42;1701147;84;20964;-72
2021/11/28 00:15:57;;;;;;;89.87;42.50;;;;;;;1.87;84.06;98932.55;1693734;84;20960;-72
2021/11/28 00:18:23;;;;;;;86.60;41.42;;;;;;;1.86;84.06;98938.07;1703756;84;20926;-72
2021/11/28 00:20:50;;;;;;;83.67;40.20;;;;;;;1.85;84.07;98933.84;1695297;84;20898;-72
2021/11/28 00:23:16;;;;;;;70.50;36.95;;;;;;;1.86;84.11;98935.52;1704408;84;20915;-72
2021/11/28 00:25:42;;;;;;;83.20;40.78;;;;;;;1.85;84.07;98934.27;1689465;84;20926;-72
2021/11/28 00:28:12;;;;;;;85.40;40.35;;;;;;;1.84;84.10;98942.77;1702246;84;20869;-72
2021/11/28 00:30:37;;;;;;;81.37;38.15;;;;;;;1.85;84.12;98934.27;1698415;84;20974;-72
2021/11/28 00:33:03;;;;;;;85.17;37.90;;;;;;;1.85;84.13;98933.84;1703303;82;20964;-72
2021/11/28 00:35:30;;;;;;;80.53;39.08;;;;;;;1.85;84.12;98924.91;1669708;84;21934;-72
2021/11/28 00:37:56;;;;;;;80.28;39.33;;;;;;;1.86;84.13;98921.51;1669423;85;20894;-72
2021/11/28 00:40:23;;;;;;;83.17;38.75;;;;;;;1.86;84.13;98920.23;1691399;84;20963;-72
2021/11/28 00:42:49;;;;;;;;;;;;;;;1.86;84.12;98913.02;1644768;85;20975;-72
2021/11/28 00:45:15;;;;;;;78.00;36.13;;;;;;;1.86;84.18;98901.13;1683128;84;20111;-72
2021/11/28 00:47:41;;;;;;;77.20;37.48;;;;;;;1.88;84.17;98900.68;1672917;85;21770;-72
2021/11/28 00:52:40;;;;;;;79.92;37.45;;;;;;;1.88;84.16;98910.87;1667695;84;21410;-72
2021/11/28 00:55:09;;;;;;;75.03;36.60;;;;;;;1.88;84.16;98914.70;1689322;84;20927;-72
2021/11/28 00:57:36;;;;;;;76.72;38.05;;;;;;;1.88;84.12;98903.23;1689180;84;20990;-72
2021/11/28 01:00:07;;;;;;;82.40;37.75;;;;;;;1.86;84.12;98907.49;1688148;84;20917;-73
2021/11/28 01:02:34;;;;;;;79.25;35.38;;;;;;;1.85;84.13;98896.87;1636456;86;20871;-72
2021/11/28 01:05:01;;;;;;;;;;;;;;;1.84;84.12;98895.19;1650650;85;20940;-72
2021/11/28 01:07:27;;;;;;;73.78;36.48;;;;;;;1.83;84.14;98894.78;1691298;84;20123;-72
2021/11/28 01:09:55;;;;;;;78.40;36.30;;;;;;;1.81;84.11;98905.41;1673151;85;20967;-72
2021/11/28 01:12:21;;;;;;;73.52;36.42;;;;;;;1.80;84.10;98918.16;1691215;84;20931;-72
2021/11/28 01:14:48;;;;;;;73.28;35.20;;;;;;;1.79;84.15;98927.51;1655598;85;20928;-72
2021/11/28 01:17:15;;;;;;;72.15;36.58;;;;;;;1.79;84.16;98933.03;1677428;84;20929;-72
2021/11/28 01:19:41;;;;;;;79.70;37.35;;;;;;;1.78;84.18;98925.82;1687389;84;21104;-72
2021/11/28 01:22:11;;;;;;;74.17;36.98;;;;;;;1.79;84.20;98929.21;1677400;84;21553;-72
2021/11/28 01:24:39;;;;;;;77.90;37.58;;;;;;;1.79;84.21;98928.78;1648272;85;20985;-72
2021/11/28 01:27:10;;;;;;;76.00;36.83;;;;;;;1.79;84.23;98917.75;1691320;84;20892;-72
2021/11/28 01:29:36;;;;;;;72.62;37.10;;;;;;;1.79;84.24;98912.65;1635850;85;21003;-72
2021/11/28 01:32:04;;;;;;;74.22;36.13;;;;;;;1.80;84.28;98910.09;1689341;84;21047;-72
2021/11/28 01:34:31;;;;;;;74.05;36.85;;;;;;;1.83;84.28;98910.50;1664092;85;21062;-72
2021/11/28 01:37:00;;;;;;;68.05;34.92;;;;;;;1.83;84.24;98914.31;1642872;86;20985;-72
2021/11/28 01:39:26;;;;;;;73.67;34.55;;;;;;;1.86;84.26;98927.03;1674513;85;20938;-72
2021/11/28 01:41:53;;;;;;;75.40;34.30;;;;;;;1.86;84.21;98934.67;1673149;85;20924;-72
2021/11/28 01:44:19;;;;;;;71.47;33.63;;;;;;;1.85;84.23;98931.28;1690873;84;20983;-72
2021/11/28 01:46:47;;;;;;;75.37;34.73;;;;;;;1.84;84.23;98925.77;1644011;87;21084;-72
2021/11/28 01:49:15;;;;;;;66.30;33.60;;;;;;;1.85;84.27;98928.73;1670441;85;20963;-72
2021/11/28 01:51:42;;;;;;;70.28;34.53;;;;;;;1.87;84.29;98937.64;1691035;84;20900;-72
2021/11/28 01:54:13;;;;;;;71.00;33.83;;;;;;;1.89;84.28;98940.59;1648306;85;20979;-72
2021/11/28 01:56:42;;;;;;;64.65;33.23;;;;;;;1.90;84.25;98946.11;1679847;84;20895;-72
2021/11/28 01:59:10;;;;;;;78.57;35.70;;;;;;;1.89;84.25;98946.12;1653526;85;20940;-72
2021/11/28 02:01:37;;;;;;;64.35;33.08;;;;;;;1.90;84.27;98949.94;1687257;84;20961;-72
2021/11/28 02:04:17;;;;;;;71.47;34.48;;;;;;;1.91;84.28;98966.92;1642341;85;20983;-72
2021/11/28 02:06:47;;;;;;;68.07;33.55;;;;;;;1.91;84.27;98961.82;1690286;84;20936;-72
2021/11/28 02:09:14;;;;;;;69.15;34.20;;;;;;;1.92;84.26;98946.09;1691287;84;20970;-72
2021/11/28 02:11:45;;;;;;;71.65;33.55;;;;;;;1.91;84.25;98959.70;1672905;85;20916;-72
2021/11/28 02:14:12;;;;;;;70.03;34.35;;;;;;;1.91;84.28;98956.72;1676087;84;20899;-72
2021/11/28 02:16:38;;;;;;;64.58;32.35;;;;;;;1.93;84.31;98952.89;1660663;86;25644;-72
2021/11/28 02:19:05;;;;;;;65.20;33.35;;;;;;;1.92;84.29;98952.47;1690714;84;20895;-72
2021/11/28 02:21:31;;;;;;;70.47;32.63;;;;;;;1.93;84.32;98956.28;1679303;84;20929;-72
2021/11/28 02:24:03;;;;;;;66.90;32.13;;;;;;;1.95;84.31;98954.56;1666082;85;20970;-72
2021/11/28 02:26:30;;;;;;;70.03;32.93;;;;;;;1.95;84.29;98953.30;1691341;84;20967;-72
2021/11/28 02:28:57;;;;;;;66.35;31.73;;;;;;;1.95;84.29;98957.55;1671447;85;21055;-72
2021/11/28 02:31:24;;;;;;;67.10;32.83;;;;;;;1.96;84.28;98957.53;1670986;84;20965;-72
2021/11/28 02:33:50;;;;;;;69.22;32.93;;;;;;;1.95;84.30;98948.20;1667154;85;24544;-72
2021/11/28 02:36:17;;;;;;;62.35;31.85;;;;;;;1.94;84.28;98938.86;1666395;85;21583;-72
2021/11/28 02:38:44;;;;;;;61.77;31.30;;;;;;;1.95;84.28;98934.17;1697581;84;20988;-72
2021/11/28 02:41:10;;;;;;;;;;;;;;;1.94;84.24;98943.95;1693881;84;21557;-72
2021/11/28 02:43:43;;;;;;;59.42;29.45;;;;;;;1.91;84.23;98943.98;1675466;84;20200;-72
2021/11/28 02:46:10;;;;;;;61.92;31.10;;;;;;;1.89;84.20;98941.03;1686812;84;21046;-72
2021/11/28 02:48:39;;;;;;;59.08;29.40;;;;;;;1.86;84.24;98925.76;1692232;84;21119;-72
2021/11/28 02:51:06;;;;;;;60.10;29.32;;;;;;;1.83;84.21;98927.06;1688275;84;21002;-72
2021/11/28 02:53:34;;;;;;;60.43;30.52;;;;;;;1.80;84.17;98929.20;1697038;84;21537;-72
2021/11/28 02:56:10;;;;;;;69.97;32.60;;;;;;;1.77;84.16;98930.50;1697172;84;21599;-72
2021/11/28 02:58:37;;;;;;;68.85;32.63;;;;;;;1.72;84.13;98922.05;1683378;84;22297;-72
2021/11/28 03:01:12;;;;;;;65.28;31.87;;;;;;;1.66;84.15;98925.48;1690812;84;21012;-72
2021/11/28 03:03:39;;;;;;;73.33;34.15;;;;;;;1.61;84.14;98930.19;1688952;83;21044;-72
2021/11/28 03:06:06;;;;;;;69.25;32.48;;;;;;;1.56;84.14;98930.68;1698115;84;20979;-72
2021/11/28 03:08:32;;;;;;;64.45;31.17;;;;;;;1.49;84.11;98927.33;1696541;84;21456;-72
2021/11/28 03:10:58;;;;;;;61.00;30.88;;;;;;;1.43;84.08;98927.37;1689954;84;26643;-72
2021/11/28 03:13:30;;;;;;;70.65;32.00;;;;;;;1.36;84.04;98936.33;1685662;84;21105;-72
2021/11/28 03:16:01;;;;;;;62.38;29.42;;;;;;;1.27;83.96;98930.86;1682099;84;20988;-72
2021/11/28 03:18:30;;;;;;;57.83;29.42;;;;;;;1.18;83.94;98922.00;1694146;84;21033;-72
2021/11/28 03:21:01;;;;;;;56.92;28.83;;;;;;;1.10;83.94;98914.83;1697561;84;21057;-72
2021/11/28 03:23:30;;;;;;;49.23;28.05;;;;;;;1.02;83.97;98908.53;1696077;84;21412;-72
2021/11/28 03:26:14;;;;;;;51.45;28.17;;;;;;;0.95;83.96;98911.97;1675874;84;20984;-72
2021/11/28 03:28:51;;;;;;;55.73;29.32;;;;;;;0.88;83.97;98920.48;1696548;84;20879;-72
2021/11/28 03:31:20;;;;;;;61.58;30.37;;;;;;;0.80;83.99;98924.33;1697143;84;21372;-72
2021/11/28 03:33:47;;;;;;;57.95;29.15;;;;;;;0.72;83.97;98920.11;1675508;84;20990;-72
2021/11/28 03:36:19;;;;;;;59.58;29.18;;;;;;;0.66;84.00;98919.28;1680250;84;20977;-72
2021/11/28 03:38:47;;;;;;;64.70;29.55;;;;;;;0.60;83.99;98928.20;1689622;84;21687;-72
2021/11/28 03:41:16;;;;;;;58.10;30.08;;;;;;;0.55;83.99;98921.44;1699350;84;21451;-72
2021/11/28 03:43:42;;;;;;;57.88;29.25;;;;;;;0.47;83.98;98922.77;1699190;84;20915;-72
2021/11/28 03:46:09;;;;;;;57.98;30.25;;;;;;;0.43;84.00;98924.89;1693313;84;21763;-72
2021/11/28 03:48:37;;;;;;;56.92;29.52;;;;;;;0.37;83.99;98918.98;1699105;84;21476;-72
2021/11/28 03:51:04;;;;;;;57.08;28.98;;;;;;;0.31;84.01;98923.22;1698630;84;21419;-72
2021/11/28 03:53:32;;;;;;;56.08;28.30;;;;;;;0.28;84.03;98930.01;1685534;84;21418;-72
2021/11/28 03:56:03;;;;;;;57.30;27.20;;;;;;;0.22;83.98;98924.94;1699187;84;21407;-72
2021/11/28 03:58:28;;;;;;;61.05;29.75;;;;;;;0.18;84.08;98913.92;1698827;84;20963;-72
2021/11/28 04:00:56;;;;;;;58.45;28.85;;;;;;;0.15;84.13;98919.02;1697725;84;21488;-72
2021/11/28 04:03:23;;;;;;;57.38;28.12;;;;;;;0.13;84.10;98925.80;1689378;83;21567;-72
2021/11/28 04:05:49;;;;;;;55.43;27.67;;;;;;;0.11;84.14;98929.19;1695993;84;21015;-72
2021/11/28 04:08:15;;;;;;;;;;;;;;;0.08;84.08;98931.73;1692673;84;21109;-72
2021/11/28 04:10:41;;;;;;;;;;;;;;;0.05;84.11;98938.08;1699956;83;20792;-72
2021/11/28 04:13:08;;;;;;;55.92;25.77;;;;;;;0.00;84.09;98938.93;1693923;84;22785;-72
2021/11/28 04:15:36;;;;;;;56.85;27.50;;;;;;;-0.04;84.06;98928.38;1649274;85;21946;-72
2021/11/28 04:18:02;;;;;;;60.40;29.42;;;;;;;-0.08;84.16;98924.14;1689307;84;21528;-72
2021/11/28 04:20:29;;;;;;;60.48;30.08;;;;;;;-0.08;84.21;98918.22;1697644;84;21121;-72
2021/11/28 04:22:55;;;;;;;56.37;29.05;;;;;;;-0.10;84.25;98918.22;1682322;83;25207;-72
2021/11/28 04:25:21;;;;;;;60.90;28.23;;;;;;;-0.10;84.22;98923.72;1692785;84;27170;-72
2021/11/28 04:27:50;;;;;;;53.17;26.80;;;;;;;-0.14;84.16;98924.15;1684991;84;21401;-72
2021/11/28 04:30:16;;;;;;;59.40;29.30;;;;;;;-0.15;84.19;98918.64;1697932;84;21117;-72
2021/11/28 04:32:42;;;;;;;60.33;28.35;;;;;;;-0.15;84.19;98925.42;1700995;83;27276;-72
2021/11/28 04:35:12;;;;;;;62.23;29.70;;;;;;;-0.18;84.14;98937.70;1675144;84;21036;-72
2021/11/28 04:37:39;;;;;;;62.03;30.30;;;;;;;-0.21;84.11;98936.84;1697527;84;20942;-72
2021/11/28 04:40:09;;;;;;;61.10;29.20;;;;;;;-0.25;84.14;98942.77;1693139;84;22495;-72
2021/11/28 04:42:35;;;;;;;52.95;28.52;;;;;;;-0.26;84.22;98947.42;1680747;84;21557;-72
2021/11/28 04:45:03;;;;;;;73.65;39.48;;;;;;;-0.26;84.22;98952.50;1697875;84;21492;-72
2021/11/28 04:47:30;;;;;;;60.95;28.73;;;;;;;-0.25;84.24;98954.20;1690556;84;21487;-72
2021/11/28 04:49:56;;;;;;;57.55;28.38;;;;;;;-0.25;84.24;98957.59;1682719;84;21062;-72
2021/11/28 04:52:22;;;;;;;57.15;27.20;;;;;;;-0.24;84.31;98958.02;1697115;84;21619;-72
2021/11/28 04:54:49;;;;;;;58.83;29.42;;;;;;;-0.22;84.27;98961.40;1683694;84;21103;-72
2021/11/28 04:57:15;;;;;;;58.38;28.73;;;;;;;-0.19;84.33;98963.94;1697795;84;21553;-72
2021/11/28 04:59:42;;;;;;;61.95;29.10;;;;;;;-0.14;84.38;98969.02;1696075;84;21004;-72
2021/11/28 05:02:08;;;;;;;62.23;30.25;;;;;;;-0.10;84.41;98962.67;1703191;83;139225;-72
2021/11/28 05:04:35;;;;;;;61.63;30.00;;;;;;;-0.05;84.43;98964.80;1722232;82;27579;-72
2021/11/28 05:07:01;;;;;;;57.62;28.65;;;;;;;-0.01;84.40;98970.72;1718774;83;21130;-72
2021/11/28 05:09:27;;;;;;;52.67;27.58;;;;;;;0.03;84.43;98978.73;1723313;82;21667;-72
2021/11/28 05:11:54;;;;;;;53.33;29.00;;;;;;;0.07;84.43;98983.39;1707408;82;22348;-72
2021/11/28 05:14:20;;;;;;;57.60;27.48;;;;;;;0.13;84.48;98980.43;1707557;83;22508;-72
2021/11/28 05:16:47;;;;;;;56.05;28.67;;;;;;;0.17;84.45;98982.13;1726603;83;21085;-72
2021/11/28 05:19:13;;;;;;;61.88;29.80;;;;;;;0.22;84.49;98981.70;1707636;82;21038;-72
2021/11/28 05:21:39;;;;;;;57.15;29.00;;;;;;;0.26;84.49;98984.66;1719539;82;21103;-72
2021/11/28 05:24:08;;;;;;;56.92;28.38;;;;;;;0.32;84.50;98987.63;1703830;82;20964;-72
2021/11/28 05:26:35;;;;;;;52.67;26.62;;;;;;;0.35;84.49;98983.80;1713719;82;21042;-72
2021/11/28 05:29:01;;;;;;;57.13;27.55;;;;;;;0.39;84.46;98982.11;1715153;83;26576;-72
2021/11/28 05:31:29;;;;;;;57.60;28.92;;;;;;;0.43;84.46;98976.17;1721161;83;20911;-72
2021/11/28 05:33:55;;;;;;;50.52;27.15;;;;;;;0.45;84.42;98982.09;1705509;82;20962;-72
2021/11/28 05:36:22;;;;;;;53.08;27.45;;;;;;;0.47;84.42;98983.79;1700544;83;20897;-72
2021/11/28 05:38:48;;;;;;;;;;;;;;;0.50;84.45;98981.24;1694114;83;20914;-72
2021/11/28 05:41:16;;;;;;;52.75;26.85;;;;;;;0.51;84.51;98982.94;1713505;81;20219;-72
2021/11/28 05:43:45;;;;;;;60.45;28.20;;;;;;;0.55;84.49;98985.86;1714167;81;20950;-72
2021/11/28 05:46:11;;;;;;;53.83;28.02;;;;;;;0.58;84.52;98990.94;1735231;81;20904;-72
2021/11/28 05:48:38;;;;;;;51.05;27.17;;;;;;;0.62;84.55;98986.27;1725773;81;20967;-72
2021/11/28 05:51:05;;;;;;;52.03;28.02;;;;;;;0.66;84.60;98979.48;1711860;81;21113;-72
2021/11/28 05:53:33;;;;;;;49.10;27.52;;;;;;;0.70;84.58;98982.86;1706383;81;21047;-72
2021/11/28 05:56:01;;;;;;;49.63;26.65;;;;;;;0.73;84.60;98984.12;1728056;81;21028;-72
2021/11/28 05:58:27;;;;;;;51.88;27.70;;;;;;;0.75;84.50;98988.36;1726224;83;21125;-73
2021/11/28 06:00:53;;;;;;;52.98;29.18;;;;;;;0.77;84.58;98988.36;1717616;83;21112;-72
2021/11/28 06:03:20;;;;;;;54.50;28.27;;;;;;;0.80;84.60;98991.73;1725946;82;20944;-72
2021/11/28 06:05:47;;;;;;;50.78;27.87;;;;;;;0.83;84.62;98993.00;1711642;82;21001;-72
2021/11/28 06:08:14;;;;;;;50.28;27.13;;;;;;;0.85;84.58;98995.12;1716526;83;21054;-72
2021/11/28 06:10:41;;;;;;;52.25;26.68;;;;;;;0.89;84.61;99000.63;1726684;83;21070;-72
2021/11/28 06:13:07;;;;;;;;;;;;;;;0.89;84.60;99003.16;1729253;83;21383;-72
2021/11/28 06:15:33;;;;;;;53.45;28.12;;;;;;;0.92;84.63;99011.22;1710013;83;20169;-72
2021/11/28 06:17:59;;;;;;;53.92;28.87;;;;;;;0.93;84.59;99017.57;1717563;82;21078;-72
2021/11/28 06:20:26;;;;;;;54.50;28.62;;;;;;;0.93;84.57;99020.55;1707240;81;22197;-72
2021/11/28 06:22:52;;;;;;;48.85;27.42;;;;;;;0.94;84.62;99026.05;1705197;82;21273;-72
2021/11/28 06:25:19;;;;;;;;;;;;;;;0.94;84.61;99028.17;1705162;82;21029;-72
2021/11/28 06:27:46;;;;;;;56.83;27.98;;;;;;;0.95;84.62;99031.14;1703119;82;20194;-72
2021/11/28 06:30:12;;;;;;;58.63;30.30;;;;;;;0.96;84.61;99027.74;1698706;82;21125;-72
2021/11/28 06:32:39;;;;;;;57.38;29.90;;;;;;;0.97;84.61;99028.16;1710839;81;21071;-72
2021/11/28 06:35:07;;;;;;;59.65;28.95;;;;;;;0.98;84.62;99023.92;1712190;82;21098;-72
2021/11/28 06:37:33;;;;;;;57.43;29.18;;;;;;;0.99;84.64;99030.28;1715614;83;20919;-72
2021/11/28 06:40:00;;;;;;;53.38;29.67;;;;;;;1.01;84.65;99035.36;1714764;81;21085;-72
2021/11/28 06:42:26;;;;;;;56.95;30.43;;;;;;;1.02;84.66;99039.60;1716396;81;21075;-72
2021/11/28 06:44:53;;;;;;;55.48;28.23;;;;;;;1.04;84.65;99038.33;1704971;81;21034;-72
2021/11/28 06:47:19;;;;;;;58.08;29.30;;;;;;;1.04;84.64;99034.51;1711110;81;21062;-72
2021/11/28 06:49:45;;;;;;;65.05;30.48;;;;;;;1.05;84.65;99034.47;1714504;80;21071;-72
2021/11/28 06:54:44;;;;;;;60.37;30.80;;;;;;;1.12;84.72;99031.05;1873256;76;22598;-72
2021/11/28 06:57:11;;;;;;;65.20;30.82;;;;;;;1.11;84.69;99036.16;1834386;76;20953;-72
2021/11/28 06:59:37;;;;;;;58.40;30.62;;;;;;;1.12;84.70;99028.94;1843536;76;21029;-72
2021/11/28 07:02:04;;;;;;;58.60;30.23;;;;;;;1.14;84.72;99036.98;1837620;76;21319;-72
2021/11/28 07:04:31;;;;;;;54.65;29.07;;;;;;;1.17;84.68;99031.04;1833812;76;21058;-72
2021/11/28 07:06:57;;;;;;;56.58;30.85;;;;;;;1.18;84.71;99029.77;1810589;77;20972;-72
2021/11/28 07:09:23;;;;;;;55.15;27.42;;;;;;;1.21;84.72;99028.91;1784355;79;21016;-72
2021/11/28 07:11:50;;;;;;;54.20;27.65;;;;;;;1.23;84.73;99031.02;1813288;77;21020;-72
2021/11/28 07:14:18;;;;;;;53.42;29.67;;;;;;;1.25;84.73;99026.77;1810176;77;26414;-72
2021/11/28 07:16:44;;;;;;;52.48;28.80;;;;;;;1.27;84.73;99032.70;1790560;78;20952;-72
2021/11/28 07:19:10;;;;;;;50.38;29.20;;;;;;;1.28;84.71;99039.48;1807375;77;21048;-72
2021/11/28 07:21:37;;;;;;;54.48;27.65;;;;;;;1.26;84.67;99042.04;1793803;78;21076;-71
2021/11/28 07:24:03;;;;;;;;;;;;;;;1.24;84.64;99043.73;1778986;78;20897;-70
2021/11/28 07:26:29;;;;;;;;;;;;;;;1.24;84.70;99040.34;1800309;78;20100;-70
2021/11/28 07:28:57;;;;;;;52.10;25.62;;;;;;;1.23;84.73;99034.84;1805033;77;20094;-70
2021/11/28 07:31:23;;;;;;;54.70;27.60;;;;;;;1.22;84.70;99032.72;1777119;80;21354;-71
2021/11/28 07:33:49;;;;;;;52.30;29.25;;;;;;;1.21;84.68;99032.30;1800626;78;20925;-71
2021/11/28 07:36:22;;;;;;;58.35;32.78;;;;;;;1.19;84.66;99031.88;1790513;79;20948;-70
2021/11/28 07:38:48;;;;;;;66.37;35.35;;;;;;;1.19;84.72;99034.00;1790366;79;20936;-71
2021/11/28 07:41:14;;;;;;;68.87;36.45;;;;;;;1.21;84.76;99038.66;1775888;80;20890;-71
2021/11/28 07:43:40;;;;;;;63.87;34.92;;;;;;;1.22;84.75;99040.78;1783978;78;20945;-71
2021/11/28 07:46:07;;;;;;;60.15;33.00;;;;;;;1.21;84.71;99046.30;1783413;79;20909;-71
2021/11/28 07:48:33;;;;;;;67.82;35.52;;;;;;;1.22;84.74;99051.81;1771945;79;21531;-70
2021/11/28 07:50:59;;;;;;;63.87;34.92;;;;;;;1.21;84.73;99051.39;1771695;80;20905;-70
2021/11/28 07:53:27;;;;;;;60.43;33.28;;;;;;;1.23;84.76;99052.23;1761281;80;22601;-70
2021/11/28 07:55:53;;;;;;;55.10;30.05;;;;;;;1.25;84.80;99053.08;1763036;79;20908;-70
2021/11/28 07:58:20;;;;;;;49.10;27.62;;;;;;;1.27;84.78;99050.52;1760069;80;20905;-70
2021/11/28 08:00:47;;;;;;;55.35;29.57;;;;;;;1.27;84.77;99051.80;1761237;79;20909;-70
2021/11/28 08:03:15;;;;;;;48.33;28.25;;;;;;;1.27;84.76;99047.98;1760928;79;21269;-70
2021/11/28 08:05:43;;;;;;;44.35;26.27;;;;;;;1.29;84.77;99050.09;1756611;81;20949;-71
2021/11/28 08:08:10;;;;;;;49.10;28.75;;;;;;;1.30;84.80;99044.14;1757275;79;21090;-71
2021/11/28 08:10:37;;;;;;;47.53;26.57;;;;;;;1.33;84.81;99040.31;1745986;79;21105;-71
2021/11/28 08:13:03;;;;;;;47.88;26.57;;;;;;;1.37;84.84;99036.91;1749425;79;21547;-71
2021/11/28 08:15:29;;;;;;;44.42;26.00;;;;;;;1.43;84.86;99043.67;1751124;80;21084;-70
2021/11/28 08:17:56;;;;;;;;;;;;;;;1.47;84.87;99047.89;1753870;79;21044;-70
2021/11/28 08:20:23;;;;;;;45.48;24.35;;;;;;;1.50;84.83;99056.37;1755522;79;20196;-70
2021/11/28 08:22:51;;;;;;;42.17;24.27;;;;;;;1.53;84.80;99063.16;1749561;79;21103;-70
2021/11/28 08:25:18;;;;;;;44.88;24.18;;;;;;;1.55;84.82;99066.54;1760507;80;21103;-72
2021/11/28 08:27:45;;;;;;;42.10;23.35;;;;;;;1.58;84.83;99069.04;1760111;81;21052;-72
2021/11/28 08:30:16;;;;;;;42.43;23.65;;;;;;;1.61;84.81;99070.30;1746723;79;21041;-72
2021/11/28 08:32:46;;;;;;;46.53;24.95;;;;;;;1.65;84.83;99070.70;1750719;80;21612;-72
2021/11/28 08:35:13;;;;;;;41.05;23.92;;;;;;;1.69;84.85;99066.02;1750168;80;21097;-73
2021/11/28 08:37:39;;;;;;;42.20;23.18;;;;;;;1.74;84.86;99074.48;1756417;80;21130;-72
2021/11/28 08:40:10;;;;;;;38.63;23.38;;;;;;;1.80;84.87;99076.15;1760763;79;21076;-72
2021/11/28 08:42:37;;;;;;;38.67;24.37;;;;;;;1.84;84.88;99077.40;1756017;79;21052;-72
2021/11/28 08:45:07;;;;;;;42.35;24.05;;;;;;;1.90;84.93;99082.46;1760726;79;21047;-72
2021/11/28 08:47:35;;;;;;;42.00;24.23;;;;;;;1.95;84.90;99088.38;1759904;79;20924;-72
2021/11/28 08:50:04;;;;;;;42.60;23.87;;;;;;;1.99;84.90;99090.06;1734469;79;20917;-73
2021/11/28 08:52:36;;;;;;;39.83;23.15;;;;;;;2.05;84.89;99095.98;1756204;79;21594;-72
2021/11/28 08:55:06;;;;;;;38.23;21.97;;;;;;;2.10;84.86;99103.14;1752134;80;21107;-72
2021/11/28 08:57:32;;;;;;;37.38;22.65;;;;;;;2.10;84.83;99106.53;1755232;80;20960;-72
2021/11/28 08:59:58;;;;;;;43.55;25.27;;;;;;;2.13;84.83;99103.97;1754385;80;26902;-72
2021/11/28 09:02:25;;;;;;;42.33;23.70;;;;;;;2.17;84.88;99109.89;1782081;78;21095;-72
2021/11/28 09:04:55;;;;;;;44.60;24.47;;;;;;;2.19;84.84;99102.66;1782958;79;21055;-72
2021/11/28 09:07:21;;;;;;;39.30;23.45;;;;;;;2.21;84.83;99101.37;1779706;80;21103;-72
2021/11/28 09:09:48;;;;;;;38.65;22.60;;;;;;;2.21;84.84;99097.54;1753420;80;21627;-72
2021/11/28 09:12:14;;;;;;;43.00;22.98;;;;;;;2.24;84.89;99097.52;1781167;79;21115;-73
2021/11/28 09:14:40;;;;;;;37.85;22.85;;;;;;;2.27;84.93;99097.50;1750064;80;21116;-73
2021/11/28 09:17:06;;;;;;;37.83;22.95;;;;;;;2.31;84.95;99092.80;1760996;80;21067;-73
2021/11/28 09:19:52;;;;;;;41.35;23.60;;;;;;;2.34;84.92;99090.22;1776293;80;21465;-73
2021/11/28 09:22:23;;;;;;;37.20;23.22;;;;;;;2.39;84.96;99090.19;1756684;80;21044;-73
2021/11/28 09:24:44;;;;;;;39.98;22.90;;;;;;;2.44;84.94;99083.35;1770294;79;21513;-73
2021/11/28 09:27:13;;;;;;;38.75;23.45;;;;;;;2.47;84.92;99078.23;1769885;80;21087;-73
2021/11/28 09:29:45;;;;;;;40.38;24.07;;;;;;;2.51;84.89;99079.89;1784032;79;20956;-73
2021/11/28 09:32:16;;;;;;;44.73;24.57;;;;;;;2.53;84.87;99084.55;1749704;81;20917;-73
2021/11/28 09:34:43;;;;;;;45.05;24.43;;;;;;;2.53;84.82;99077.75;1734638;81;20890;-73
2021/11/28 09:37:11;;;;;;;41.80;24.18;;;;;;;2.55;84.87;99073.91;1773056;79;20919;-73
2021/11/28 09:39:44;;;;;;;41.25;24.55;;;;;;;2.58;84.89;99073.45;1786349;80;20904;-77
2021/11/28 09:42:13;;;;;;;41.10;23.27;;;;;;;2.61;84.92;99073.39;1752759;79;20909;-69
2021/11/28 09:44:42;;;;;;;39.75;23.45;;;;;;;2.63;84.83;99061.47;1760255;79;20885;-69
2021/11/28 09:47:11;;;;;;;42.60;24.35;;;;;;;2.68;84.87;99054.20;1753708;81;20953;-69
2021/11/28 09:49:42;;;;;;;43.87;24.57;;;;;;;2.73;84.88;99055.01;1758245;80;20921;-70
2021/11/28 09:52:11;;;;;;;43.75;25.32;;;;;;;2.78;84.91;99057.09;1763305;80;20909;-70
2021/11/28 09:54:44;;;;;;;94.70;50.58;;;;;;;2.82;84.92;99057.05;1728848;79;20981;-73
2021/11/28 09:57:16;;;;;;;56.40;32.83;;;;;;;2.85;84.91;99057.02;1757775;79;20901;-73
2021/11/28 09:59:47;;;;;;;48.33;27.95;;;;;;;2.89;84.91;99054.84;1757273;79;20908;-73
2021/11/28 10:02:30;;;;;;;49.00;30.55;;;;;;;2.91;84.85;99071.42;1762696;79;20928;-73
2021/11/28 10:05:03;;;;;;;65.20;39.25;;;;;;;2.92;84.89;99079.06;1762461;79;20952;-73
2021/11/28 10:07:30;;;;;;;45.98;28.77;;;;;;;2.93;84.85;99067.15;1761467;79;21373;-73
2021/11/28 10:09:57;;;;;;;52.85;30.17;;;;;;;2.95;84.84;99061.17;1764870;79;21481;-73
2021/11/28 10:12:29;;;;;;;61.42;33.00;;;;;;;2.97;84.86;99056.05;1754758;79;20890;-70
2021/11/28 10:15:03;;;;;;;64.95;37.03;;;;;;;2.99;84.85;99058.16;1765439;80;21373;-70
2021/11/28 10:17:32;;;;;;;92.53;54.23;;;;;;;2.99;84.85;99052.61;1758939;81;20929;-70
2021/11/28 10:20:01;;;;;;;55.05;31.02;;;;;;;3.02;84.90;99047.91;1764190;80;20918;-70
2021/11/28 10:22:31;;;;;;;54.15;31.35;;;;;;;3.05;84.87;99046.59;1738161;79;20944;-73
2021/11/28 10:25:15;;;;;;;56.63;34.27;;;;;;;3.06;84.89;99044.89;1760734;79;20960;-73
2021/11/28 10:27:52;;;;;;;85.28;42.90;;;;;;;3.11;84.90;99041.86;1761720;79;20870;-73
2021/11/28 10:30:34;;;;;;;61.63;35.40;;;;;;;3.15;84.96;99048.16;1759817;79;20936;-73
2021/11/28 10:33:12;;;;;;;71.05;38.13;;;;;;;3.18;84.89;99054.51;1764409;79;20882;-73
2021/11/28 10:36:02;;;;;;;92.12;50.40;;;;;;;3.22;84.95;99055.31;1755936;81;20910;-71
2021/11/28 10:38:41;;;;;;;52.88;31.37;;;;;;;3.25;84.91;99048.90;1753561;80;20949;-70
2021/11/28 10:41:28;;;;;;;55.65;28.87;;;;;;;3.28;84.94;99051.42;1755175;81;20910;-70
2021/11/28 10:43:55;;;;;;;56.28;29.35;;;;;;;3.24;84.77;99049.33;1761723;79;21167;-70
2021/11/28 10:46:31;;;;;;;51.00;29.72;;;;;;;3.24;84.84;99044.66;1758000;81;20929;-71
2021/11/28 10:49:09;;;;;;;48.83;29.23;;;;;;;3.28;84.94;99043.75;1754815;80;20901;-70
2021/11/28 10:51:39;;;;;;;58.40;32.08;;;;;;;3.30;84.90;99044.16;1760437;81;20916;-70
2021/11/28 10:54:31;;;;;;;62.55;33.02;;;;;;;3.31;84.88;99047.55;1750914;81;20949;-70
2021/11/28 10:57:14;;;;;;;55.45;30.50;;;;;;;3.35;84.92;99048.36;1718150;80;404349;-70
2021/11/28 10:59:59;;;;;;;57.27;32.23;;;;;;;3.39;84.92;99047.46;1689235;83;20910;-70
2021/11/28 11:02:32;;;;;;;59.38;31.42;;;;;;;3.41;84.89;99048.28;1671987;83;20949;-70
2021/11/28 11:05:01;;;;;;;55.40;32.00;;;;;;;3.43;84.92;99041.02;1663141;84;20929;-70
2021/11/28 11:07:42;;;;;;;62.98;34.33;;;;;;;3.44;84.89;99034.20;1662124;84;20972;-70
2021/11/28 11:10:23;;;;;;;58.85;34.10;;;;;;;3.42;84.79;99029.11;1660861;84;21051;-70
2021/11/28 11:12:50;;;;;;;62.23;34.35;;;;;;;3.39;84.80;99033.41;1668031;84;20992;-70
2021/11/28 11:15:40;;;;;;;56.48;32.00;;;;;;;3.38;84.85;99034.27;1667811;84;21598;-70
2021/11/28 11:18:10;;;;;;;57.73;31.10;;;;;;;3.37;84.80;99033.86;1669065;84;21119;-71
2021/11/28 11:20:43;;;;;;;59.90;33.23;;;;;;;3.33;84.78;99032.63;1668610;84;20981;-70
2021/11/28 11:23:40;;;;;;;60.88;34.60;;;;;;;3.31;84.82;99038.18;1663929;84;20965;-70
2021/11/28 11:26:19;;;;;;;68.10;37.58;;;;;;;3.29;84.84;99036.08;1678256;84;20940;-70
2021/11/28 11:29:10;;;;;;;74.40;40.40;;;;;;;3.23;84.71;99032.75;1669077;84;20987;-70
2021/11/28 11:31:39;;;;;;;74.12;40.95;;;;;;;3.18;84.76;99031.95;1661028;84;21123;-71
2021/11/28 11:34:25;;;;;;;81.17;45.10;;;;;;;3.15;84.75;99028.16;1665625;84;20973;-69
2021/11/28 11:37:02;;;;;;;75.47;40.52;;;;;;;3.12;84.79;99031.59;1663108;84;20921;-71
2021/11/28 11:39:32;;;;;;;72.53;41.25;;;;;;;3.11;84.81;99026.53;1663487;84;27105;-68
2021/11/28 11:41:59;;;;;;;79.82;44.35;;;;;;;3.10;84.82;99024.41;1668806;84;21051;-68
2021/11/28 11:44:28;;;;;;;81.70;44.25;;;;;;;3.10;84.82;99029.52;1670903;84;21038;-68
2021/11/28 11:46:57;;;;;;;80.07;44.67;;;;;;;3.11;84.79;99022.70;1686269;83;20958;-68